createdAt,value
2022-08-12T00:02:31.643Z,19.93
2022-08-12T00:05:17.547Z,19.87
2022-08-12T00:08:00.430Z,19.80
2022-08-12T00:10:43.911Z,19.71
2022-08-12T00:13:27.930Z,19.66
2022-08-12T00:16:10.767Z,19.59
2022-08-12T00:18:53.651Z,19.56
2022-08-12T00:21:38.967Z,19.50
2022-08-12T00:24:22.956Z,19.47
2022-08-12T00:27:06.361Z,19.42
2022-08-12T00:29:49.549Z,19.37
2022-08-12T00:32:35.908Z,19.33
2022-08-12T00:35:19.457Z,19.28
2022-08-12T00:38:08.376Z,19.24
2022-08-12T00:40:53.751Z,19.20
2022-08-12T00:43:29.381Z,19.19
2022-08-12T00:46:12.555Z,19.15
2022-08-12T00:48:44.448Z,19.15
2022-08-12T00:51:14.770Z,19.15
2022-08-12T00:53:48.959Z,19.12
2022-08-12T00:56:20.564Z,19.11
2022-08-12T00:58:53.828Z,19.08
2022-08-12T01:01:27.838Z,19.05
2022-08-12T01:04:36.897Z,19.04
2022-08-12T01:07:24.184Z,19.01
2022-08-12T01:10:10.622Z,19.00
2022-08-12T01:12:44.580Z,18.93
2022-08-12T01:15:16.447Z,18.85
2022-08-12T01:17:48.119Z,18.79
2022-08-12T01:20:31.938Z,18.74
2022-08-12T01:23:41.172Z,18.69
2022-08-12T01:26:19.636Z,18.66
2022-08-12T01:28:53.595Z,18.59
2022-08-12T01:31:30.675Z,18.59
2022-08-12T01:34:35.735Z,18.56
2022-08-12T01:37:02.593Z,18.57
2022-08-12T01:39:37.765Z,18.55
2022-08-12T01:42:14.311Z,18.58
2022-08-12T01:44:45.030Z,18.59
2022-08-12T01:47:24.157Z,18.61
2022-08-12T01:50:12.158Z,18.60
2022-08-12T01:52:55.934Z,18.60
2022-08-12T01:55:30.957Z,18.61
2022-08-12T01:58:14.570Z,18.58
2022-08-12T02:00:55.337Z,18.58
2022-08-12T02:04:01.845Z,18.57
2022-08-12T02:07:01.267Z,18.57
2022-08-12T02:10:05.475Z,18.54
2022-08-12T02:12:48.482Z,18.51
2022-08-12T02:15:31.430Z,18.48
2022-08-12T02:18:14.942Z,18.48
2022-08-12T02:20:53.000Z,18.44
2022-08-12T02:23:30.754Z,18.41
2022-08-12T02:26:06.815Z,18.40
2022-08-12T02:28:39.874Z,18.39
2022-08-12T02:31:12.757Z,18.39
2022-08-12T02:33:47.684Z,18.36
2022-08-12T02:36:19.346Z,18.34
2022-08-12T02:38:53.203Z,18.35
2022-08-12T02:41:31.750Z,18.32
2022-08-12T02:44:11.057Z,18.29
2022-08-12T02:46:49.380Z,18.26
2022-08-12T02:49:27.052Z,18.26
2022-08-12T02:51:57.805Z,18.20
2022-08-12T02:54:30.464Z,18.21
2022-08-12T02:57:02.697Z,18.17
2022-08-12T02:59:42.872Z,18.14
2022-08-12T03:02:19.804Z,18.13
2022-08-12T03:04:57.413Z,18.12
2022-08-12T03:07:56.550Z,18.12
2022-08-12T03:10:37.061Z,18.13
2022-08-12T03:13:11.667Z,18.12
2022-08-12T03:15:42.863Z,18.08
2022-08-12T03:18:28.444Z,18.08
2022-08-12T03:21:01.674Z,18.09
2022-08-12T03:23:36.522Z,18.10
2022-08-12T03:26:07.109Z,18.08
2022-08-12T03:29:00.798Z,18.06
2022-08-12T03:31:36.703Z,18.05
2022-08-12T03:34:12.562Z,18.03
2022-08-12T03:36:44.542Z,18.04
2022-08-12T03:39:36.196Z,18.04
2022-08-12T03:42:28.207Z,18.03
2022-08-12T03:45:28.857Z,18.02
2022-08-12T03:48:20.737Z,18.04
2022-08-12T03:51:10.899Z,18.01
2022-08-12T03:54:05.281Z,17.97
2022-08-12T03:57:06.968Z,17.96
2022-08-12T04:00:06.681Z,17.93
2022-08-12T04:02:45.614Z,17.90
2022-08-12T04:05:55.556Z,17.90
2022-08-12T04:08:37.874Z,17.93
2022-08-12T04:11:32.127Z,17.93
2022-08-12T04:14:09.286Z,17.93
2022-08-12T04:16:43.352Z,17.93
2022-08-12T04:19:14.015Z,17.92
2022-08-12T04:22:01.766Z,17.92
2022-08-12T04:25:05.222Z,17.90
2022-08-12T04:27:41.643Z,17.89
2022-08-12T04:30:33.339Z,17.86
2022-08-12T04:33:08.782Z,17.88
2022-08-12T04:35:51.455Z,17.89
2022-08-12T04:38:32.147Z,17.85
2022-08-12T04:41:19.523Z,17.83
2022-08-12T04:44:04.087Z,17.86
2022-08-12T04:46:38.192Z,17.86
2022-08-12T04:49:12.238Z,17.85
2022-08-12T04:51:43.888Z,17.84
2022-08-12T04:54:37.938Z,17.86
2022-08-12T04:57:19.413Z,17.86
2022-08-12T05:00:01.020Z,17.84
2022-08-12T05:02:35.408Z,17.87
2022-08-12T05:05:35.233Z,17.89
2022-08-12T05:08:20.549Z,17.89
2022-08-12T05:10:56.046Z,17.92
2022-08-12T05:13:38.476Z,17.96
2022-08-12T05:16:14.556Z,18.00
2022-08-12T05:18:45.890Z,18.06
2022-08-12T05:21:18.242Z,18.14
2022-08-12T05:23:50.126Z,18.27
2022-08-12T05:26:32.951Z,18.39
2022-08-12T05:30:07.638Z,18.49
2022-08-12T05:32:08.906Z,18.61
2022-08-12T05:34:50.870Z,18.70
2022-08-12T05:37:36.518Z,18.86
2022-08-12T05:40:11.511Z,18.95
2022-08-12T05:42:45.056Z,19.10
2022-08-12T05:45:24.683Z,19.31
2022-08-12T05:48:05.842Z,19.48
2022-08-12T05:50:47.426Z,19.62
2022-08-12T05:53:21.667Z,19.84
2022-08-12T05:56:36.768Z,20.01
2022-08-12T05:59:21.940Z,20.16
2022-08-12T06:02:35.727Z,20.36
2022-08-12T06:05:16.210Z,20.47
2022-08-12T06:08:00.449Z,20.58
2022-08-12T06:10:40.784Z,20.84
2022-08-12T06:13:28.274Z,20.98
2022-08-12T06:16:14.379Z,21.09
2022-08-12T06:18:52.545Z,21.14
2022-08-12T06:21:24.580Z,21.37
2022-08-12T06:24:00.236Z,21.53
2022-08-12T06:26:41.406Z,21.70
2022-08-12T06:30:07.525Z,21.84
2022-08-12T06:32:09.300Z,22.09
2022-08-12T06:35:27.205Z,22.23
2022-08-12T06:37:45.432Z,22.33
2022-08-12T06:40:44.142Z,22.53
2022-08-12T06:43:15.824Z,22.72
2022-08-12T06:45:50.401Z,22.93
2022-08-12T06:48:21.681Z,23.11
2022-08-12T06:50:54.992Z,23.33
2022-08-12T06:53:27.225Z,23.41
2022-08-12T06:55:58.477Z,23.52
2022-08-12T06:58:36.382Z,23.58
2022-08-12T07:01:06.092Z,23.66
2022-08-12T07:03:36.709Z,23.63
2022-08-12T07:06:11.769Z,23.92
2022-08-12T07:08:44.145Z,24.24
2022-08-12T07:11:16.382Z,24.23
2022-08-12T07:14:11.283Z,24.41
2022-08-12T07:17:02.370Z,24.46
2022-08-12T07:19:40.591Z,24.69
2022-08-12T07:22:20.211Z,24.83
2022-08-12T07:25:12.118Z,25.00
2022-08-12T07:27:45.700Z,25.04
2022-08-12T07:30:16.944Z,25.21
2022-08-12T07:32:47.874Z,25.30
2022-08-12T07:35:19.389Z,25.45
2022-08-12T07:37:53.393Z,25.56
2022-08-12T07:40:27.198Z,25.53
2022-08-12T07:42:58.264Z,25.74
2022-08-12T07:45:29.261Z,25.92
2022-08-12T07:48:00.879Z,25.94
2022-08-12T07:50:31.975Z,26.05
2022-08-12T07:53:05.230Z,26.46
2022-08-12T07:55:36.948Z,26.68
2022-08-12T07:58:09.986Z,26.77
2022-08-12T08:00:41.868Z,26.82
2022-08-12T08:03:13.189Z,27.11
2022-08-12T08:05:46.613Z,27.23
2022-08-12T08:08:21.057Z,26.96
2022-08-12T08:10:52.717Z,26.93
2022-08-12T08:13:20.741Z,27.10
2022-08-12T08:16:03.427Z,27.24
2022-08-12T08:18:35.789Z,27.52
2022-08-12T08:21:10.989Z,27.49
2022-08-12T08:23:58.879Z,27.74
2022-08-12T08:26:36.450Z,27.81
2022-08-12T08:29:06.231Z,27.95
2022-08-12T08:31:36.154Z,27.95
2022-08-12T08:34:49.328Z,28.29
2022-08-12T08:37:00.158Z,28.39
2022-08-12T08:39:39.750Z,28.24
2022-08-12T08:42:22.297Z,28.14
2022-08-12T08:44:57.918Z,28.70
2022-08-12T08:47:30.752Z,28.80
2022-08-12T08:50:06.588Z,28.66
2022-08-12T08:52:40.953Z,28.86
2022-08-12T08:55:20.876Z,29.00
2022-08-12T08:57:57.972Z,29.19
2022-08-12T09:00:31.132Z,29.19
2022-08-12T09:04:21.274Z,29.02
2022-08-12T09:06:02.148Z,29.07
2022-08-12T09:08:36.169Z,29.44
2022-08-12T09:12:07.023Z,29.64
2022-08-12T09:14:18.531Z,29.53
2022-08-12T09:16:51.516Z,29.85
2022-08-12T09:19:29.631Z,29.98
2022-08-12T09:22:11.837Z,29.92
2022-08-12T09:24:48.842Z,30.30
2022-08-12T09:27:58.021Z,30.03
2022-08-12T09:30:17.027Z,30.21
2022-08-12T09:33:04.255Z,30.25
2022-08-12T09:35:44.389Z,30.24
2022-08-12T09:38:28.254Z,30.51
2022-08-12T09:42:08.476Z,30.67
2022-08-12T09:44:39.595Z,30.60
2022-08-12T09:47:10.767Z,30.86
2022-08-12T09:49:42.547Z,30.63
2022-08-12T09:52:15.825Z,30.93
2022-08-12T09:54:48.305Z,30.83
2022-08-12T09:58:08.071Z,31.17
2022-08-12T10:00:28.117Z,31.37
2022-08-12T10:03:31.487Z,31.30
2022-08-12T10:06:26.326Z,31.34
2022-08-12T10:08:55.620Z,31.61
2022-08-12T10:12:10.543Z,31.91
2022-08-12T10:14:34.648Z,31.98
2022-08-12T10:17:12.538Z,31.69
2022-08-12T10:19:51.565Z,31.95
2022-08-12T10:22:40.458Z,32.09
2022-08-12T10:26:18.133Z,31.65
2022-08-12T10:28:31.516Z,32.00
2022-08-12T10:31:04.843Z,31.85
2022-08-12T10:33:54.089Z,32.26
2022-08-12T10:36:40.035Z,32.11
2022-08-12T10:40:00.164Z,32.22
2022-08-12T10:42:29.461Z,31.95
2022-08-12T10:45:06.018Z,32.44
2022-08-12T10:48:19.898Z,32.34
2022-08-12T10:51:01.667Z,32.78
2022-08-12T10:53:44.906Z,32.86
2022-08-12T10:56:18.367Z,32.85
2022-08-12T10:58:49.021Z,32.45
2022-08-12T11:01:49.793Z,32.60
2022-08-12T11:04:23.649Z,32.94
2022-08-12T11:08:36.144Z,32.91
2022-08-12T11:10:02.786Z,32.88
2022-08-12T11:12:59.150Z,32.90
2022-08-12T11:16:03.011Z,33.14
2022-08-12T11:18:19.664Z,32.92
2022-08-12T11:20:57.923Z,32.82
2022-08-12T11:23:37.512Z,32.80
2022-08-12T11:26:11.934Z,33.50
2022-08-12T11:28:41.751Z,33.41
2022-08-12T11:31:16.064Z,33.58
2022-08-12T11:34:04.656Z,33.46
2022-08-12T11:36:40.851Z,33.27
2022-08-12T11:42:32.166Z,33.08
2022-08-12T11:45:06.698Z,33.19
2022-08-12T11:48:08.395Z,33.28
2022-08-12T11:50:46.498Z,33.20
2022-08-12T11:53:57.199Z,33.25
2022-08-12T11:56:13.859Z,33.59
2022-08-12T12:01:57.743Z,33.55
2022-08-12T12:02:02.331Z,33.91
2022-08-12T12:04:28.908Z,33.92
2022-08-12T12:07:07.499Z,33.85
2022-08-12T12:09:51.999Z,33.72
2022-08-12T12:12:31.374Z,33.69
2022-08-12T12:15:06.792Z,33.85
2022-08-12T12:17:42.727Z,33.05
2022-08-12T12:20:15.233Z,33.05
2022-08-12T12:22:45.533Z,33.00
2022-08-12T12:25:15.495Z,33.10
2022-08-12T12:28:05.918Z,33.72
2022-08-12T12:30:37.555Z,33.78
2022-08-12T12:33:10.739Z,33.60
2022-08-12T12:36:16.578Z,33.92
2022-08-12T12:38:41.501Z,34.07
2022-08-12T12:41:14.222Z,34.59
2022-08-12T12:44:04.061Z,34.39
2022-08-12T12:46:37.336Z,34.15
2022-08-12T12:49:11.252Z,33.99
2022-08-12T12:52:06.761Z,34.18
2022-08-12T12:54:38.427Z,34.51
2022-08-12T12:57:14.927Z,34.41
2022-08-12T13:00:09.916Z,34.30
2022-08-12T13:02:42.529Z,34.25
2022-08-12T13:05:13.872Z,34.34
2022-08-12T13:07:54.139Z,34.23
2022-08-12T13:10:32.164Z,34.03
2022-08-12T13:14:06.866Z,34.21
2022-08-12T13:16:14.419Z,34.17
2022-08-12T13:18:52.808Z,34.20
2022-08-12T13:21:36.461Z,33.81
2022-08-12T13:24:19.810Z,34.18
2022-08-12T13:26:50.006Z,34.24
2022-08-12T13:29:20.522Z,34.33
2022-08-12T13:32:19.204Z,34.55
2022-08-12T13:35:04.738Z,34.51
2022-08-12T13:37:54.472Z,35.15
2022-08-12T13:40:29.175Z,35.43
2022-08-12T13:43:06.657Z,35.64
2022-08-12T13:45:44.642Z,35.26
2022-08-12T13:48:19.737Z,35.03
2022-08-12T13:50:50.182Z,35.39
2022-08-12T13:53:24.061Z,35.52
2022-08-12T13:56:01.675Z,35.58
2022-08-12T13:58:37.609Z,35.58
2022-08-12T14:01:10.885Z,34.70
2022-08-12T14:03:50.432Z,34.80
2022-08-12T14:06:25.933Z,34.93
2022-08-12T14:09:15.469Z,34.68
2022-08-12T14:11:51.239Z,34.66
2022-08-12T14:14:35.587Z,35.08
2022-08-12T14:17:10.651Z,35.13
2022-08-12T14:20:03.973Z,34.65
2022-08-12T14:22:38.202Z,34.70
2022-08-12T14:25:11.343Z,34.88
2022-08-12T14:28:03.320Z,35.25
2022-08-12T14:30:39.564Z,35.75
2022-08-12T14:33:44.241Z,35.97
2022-08-12T14:36:18.749Z,35.72
2022-08-12T14:38:52.024Z,35.67
2022-08-12T14:41:36.566Z,35.32
2022-08-12T14:44:59.657Z,35.03
2022-08-12T14:47:08.075Z,34.52
2022-08-12T14:50:33.997Z,34.86
2022-08-12T14:58:31.873Z,34.66
2022-08-12T15:01:21.174Z,34.86
2022-08-12T15:03:58.231Z,34.68
2022-08-12T15:06:44.244Z,35.02
2022-08-12T15:09:28.648Z,35.11
2022-08-12T15:12:03.763Z,34.82
2022-08-12T15:14:37.992Z,35.20
2022-08-12T15:17:08.803Z,35.04
2022-08-12T15:20:12.009Z,34.71
2022-08-12T15:22:38.302Z,34.45
2022-08-12T15:25:17.704Z,34.55
2022-08-12T15:28:05.919Z,34.42
2022-08-12T15:30:41.909Z,34.83
2022-08-12T15:33:18.768Z,34.88
2022-08-12T15:35:53.430Z,34.86
2022-08-12T15:38:30.909Z,34.60
2022-08-12T15:41:05.137Z,34.72
2022-08-12T15:44:16.411Z,34.55
2022-08-12T15:46:37.161Z,34.75
2022-08-12T15:49:16.879Z,34.64
2022-08-12T15:51:59.164Z,34.74
2022-08-12T15:54:41.004Z,34.58
2022-08-12T15:57:18.656Z,34.73
2022-08-12T16:00:06.577Z,34.66
2022-08-12T16:02:50.139Z,34.94
2022-08-12T16:06:19.086Z,34.67
2022-08-12T16:08:19.727Z,34.07
2022-08-12T16:10:56.453Z,34.14
2022-08-12T16:13:36.293Z,33.74
2022-08-12T16:16:22.513Z,33.80
2022-08-12T16:18:59.611Z,33.33
2022-08-12T16:21:52.025Z,33.14
2022-08-12T16:24:36.077Z,33.22
2022-08-12T16:27:12.066Z,33.20
2022-08-12T16:29:53.232Z,32.65
2022-08-12T16:32:31.423Z,32.65
2022-08-12T16:35:16.404Z,32.76
2022-08-12T16:38:27.947Z,32.78
2022-08-12T16:40:46.332Z,32.69
2022-08-12T16:43:30.413Z,32.50
2022-08-12T16:46:31.561Z,32.46
2022-08-12T16:49:08.985Z,32.13
2022-08-12T16:51:46.162Z,31.82
2022-08-12T16:54:18.707Z,31.96
2022-08-12T16:56:57.479Z,31.69
2022-08-12T16:59:53.346Z,31.44
2022-08-12T17:02:31.941Z,31.44
2022-08-12T17:05:15.089Z,31.25
2022-08-12T17:07:52.498Z,31.25
2022-08-12T17:10:35.908Z,30.94
2022-08-12T17:13:13.897Z,30.96
2022-08-12T17:15:56.868Z,30.95
2022-08-12T17:18:43.373Z,30.95
2022-08-12T17:21:20.257Z,30.81
2022-08-12T17:24:15.267Z,30.72
2022-08-12T17:26:49.300Z,30.64
2022-08-12T17:29:24.138Z,30.47
2022-08-12T17:32:14.646Z,30.71
2022-08-12T17:35:04.869Z,30.68
2022-08-12T17:37:35.708Z,30.70
2022-08-12T17:40:17.676Z,30.44
2022-08-12T17:43:51.777Z,30.18
2022-08-12T17:46:01.968Z,30.09
2022-08-12T17:48:38.668Z,29.92
2022-08-12T17:51:16.260Z,29.88
2022-08-12T17:54:11.527Z,29.81
2022-08-12T17:56:40.110Z,29.60
2022-08-12T17:59:12.565Z,29.54
2022-08-12T18:01:46.199Z,29.52
2022-08-12T18:04:23.192Z,29.31
2022-08-12T18:07:10.754Z,29.29
2022-08-12T18:09:44.015Z,29.22
2022-08-12T18:12:34.757Z,29.12
2022-08-12T18:15:26.459Z,29.11
2022-08-12T18:18:16.699Z,28.95
2022-08-12T18:20:47.112Z,28.96
2022-08-12T18:23:25.128Z,28.99
2022-08-12T18:26:24.284Z,28.83
2022-08-12T18:28:58.016Z,28.80
2022-08-12T18:31:44.630Z,28.52
2022-08-12T18:34:31.706Z,28.47
2022-08-12T18:37:26.591Z,28.39
2022-08-12T18:40:10.973Z,28.16
2022-08-12T18:42:41.518Z,28.07
2022-08-12T18:45:19.936Z,27.89
2022-08-12T18:47:52.037Z,27.90
2022-08-12T18:50:27.647Z,27.81
2022-08-12T18:54:04.872Z,27.63
2022-08-12T18:56:33.854Z,27.58
2022-08-12T18:59:10.676Z,27.53
2022-08-12T19:02:21.403Z,27.38
2022-08-12T19:08:08.187Z,27.02
2022-08-12T19:10:50.713Z,26.91
2022-08-12T19:13:39.013Z,26.77
2022-08-12T19:16:13.790Z,26.69
2022-08-12T19:18:45.813Z,26.57
2022-08-12T19:21:20.316Z,26.46
2022-08-12T19:24:09.053Z,26.37
2022-08-12T19:26:42.544Z,26.27
2022-08-12T19:29:18.806Z,26.18
2022-08-12T19:31:57.191Z,26.12
2022-08-12T19:38:02.635Z,25.93
2022-08-12T19:40:31.496Z,25.81
2022-08-12T19:43:20.437Z,25.74
2022-08-12T19:45:57.270Z,25.67
2022-08-12T19:48:35.332Z,25.60
2022-08-12T19:51:09.104Z,25.52
2022-08-12T19:54:01.265Z,25.43
2022-08-12T19:56:36.384Z,25.38
2022-08-12T19:59:22.887Z,25.39
2022-08-12T20:02:03.369Z,25.28
2022-08-12T20:04:37.741Z,25.25
2022-08-12T20:07:23.227Z,25.17
2022-08-12T20:09:56.896Z,25.06
2022-08-12T20:12:59.263Z,24.98
2022-08-12T20:15:44.400Z,24.87
2022-08-12T20:18:44.198Z,24.84
2022-08-12T20:21:15.143Z,24.80
2022-08-12T20:23:59.520Z,24.72
2022-08-12T20:26:37.634Z,24.68
2022-08-12T20:29:10.626Z,24.60
2022-08-12T20:31:41.492Z,24.53
2022-08-12T20:34:18.849Z,24.44
2022-08-12T20:36:57.239Z,24.42
2022-08-12T20:39:53.644Z,24.39
2022-08-12T20:42:31.529Z,24.40
2022-08-12T20:45:01.745Z,24.28
2022-08-12T20:47:41.967Z,24.20
2022-08-12T20:50:23.290Z,24.12
2022-08-12T20:52:57.833Z,24.08
2022-08-12T20:55:41.908Z,23.99
2022-08-12T20:58:13.801Z,23.96
2022-08-12T21:00:50.177Z,23.87
2022-08-12T21:03:35.272Z,23.84
2022-08-12T21:06:23.012Z,23.78
2022-08-12T21:09:03.370Z,23.72
2022-08-12T21:11:39.051Z,23.64
2022-08-12T21:14:16.472Z,23.57
2022-08-12T21:16:52.466Z,23.51
2022-08-12T21:19:25.529Z,23.46
2022-08-12T21:22:24.411Z,23.32
2022-08-12T21:25:14.491Z,23.28
2022-08-12T21:27:58.510Z,23.23
2022-08-12T21:31:11.448Z,23.17
2022-08-12T21:33:58.326Z,23.09
2022-08-12T21:36:35.560Z,23.02
2022-08-12T21:39:18.015Z,22.96
2022-08-12T21:41:52.050Z,22.86
2022-08-12T21:45:46.021Z,22.80
2022-08-12T21:47:20.489Z,22.74
2022-08-12T21:50:06.411Z,22.67
2022-08-12T21:52:40.752Z,22.59
2022-08-12T21:55:18.659Z,22.54
2022-08-12T21:57:54.599Z,22.49
2022-08-12T22:00:42.471Z,22.40
2022-08-12T22:04:03.290Z,22.37
2022-08-12T22:06:43.295Z,22.32
2022-08-12T22:09:42.510Z,22.30
2022-08-12T22:12:39.667Z,22.22
2022-08-12T22:15:21.507Z,22.16
2022-08-12T22:17:55.511Z,22.12
2022-08-12T22:20:31.143Z,22.05
2022-08-12T22:23:21.753Z,22.00
2022-08-12T22:26:01.046Z,21.93
2022-08-12T22:28:54.510Z,21.86
2022-08-12T22:31:31.097Z,21.77
2022-08-12T22:34:06.932Z,21.72
2022-08-12T22:37:03.715Z,21.67
2022-08-12T22:39:44.103Z,21.62
2022-08-12T22:42:30.632Z,21.57
2022-08-12T22:45:35.753Z,21.49
2022-08-12T22:48:50.195Z,21.44
2022-08-12T22:52:00.970Z,21.43
2022-08-12T22:54:35.674Z,21.36
2022-08-12T22:57:14.483Z,21.32
2022-08-12T22:59:56.464Z,21.27
2022-08-12T23:02:46.401Z,21.19
2022-08-12T23:05:22.350Z,21.12
2022-08-12T23:08:23.763Z,21.08
2022-08-12T23:11:36.296Z,21.04
2022-08-12T23:14:11.800Z,21.00
2022-08-12T23:16:47.917Z,20.92
2022-08-12T23:19:45.902Z,20.87
2022-08-12T23:22:36.419Z,20.79
2022-08-12T23:25:54.150Z,20.72
2022-08-12T23:28:39.113Z,20.66
2022-08-12T23:32:01.684Z,20.63
2022-08-12T23:34:23.906Z,20.57
2022-08-12T23:37:17.092Z,20.52
2022-08-12T23:40:17.863Z,20.45
2022-08-12T23:42:51.976Z,20.38
2022-08-12T23:45:31.234Z,20.30
2022-08-12T23:48:22.710Z,20.19
2022-08-12T23:51:23.081Z,20.08
2022-08-12T23:54:11.309Z,20.02
2022-08-12T23:57:11.097Z,19.98
2022-08-12T23:59:47.344Z,19.92
